createdAt,value
2018-11-25T00:00:26.109Z,5.00
2018-11-25T00:02:54.299Z,5.00
2018-11-25T00:05:22.523Z,5.00
2018-11-25T00:07:50.724Z,5.00
2018-11-25T00:10:18.933Z,5.00
2018-11-25T00:12:47.142Z,5.10
2018-11-25T00:15:15.372Z,5.00
2018-11-25T00:17:43.561Z,5.10
2018-11-25T00:20:13.241Z,5.10
2018-11-25T00:22:41.745Z,5.10
2018-11-25T00:25:11.974Z,5.10
2018-11-25T00:27:40.172Z,5.20
2018-11-25T00:30:10.076Z,5.10
2018-11-25T00:32:38.372Z,5.20
2018-11-25T00:35:07.743Z,5.20
2018-11-25T00:37:36.049Z,5.20
2018-11-25T00:40:05.490Z,5.30
2018-11-25T00:42:33.677Z,5.30
2018-11-25T00:45:01.959Z,5.30
2018-11-25T00:47:30.157Z,5.30
2018-11-25T00:49:58.354Z,5.30
2018-11-25T00:52:26.590Z,5.30
2018-11-25T00:54:54.806Z,5.30
2018-11-25T00:57:23.067Z,5.30
2018-11-25T00:59:51.263Z,5.30
2018-11-25T01:02:19.523Z,5.30
2018-11-25T01:04:47.701Z,5.20
2018-11-25T01:07:15.926Z,5.10
2018-11-25T01:09:44.153Z,5.10
2018-11-25T01:12:12.349Z,5.10
2018-11-25T01:14:40.558Z,5.10
2018-11-25T01:17:08.844Z,5.00
2018-11-25T01:19:37.037Z,5.00
2018-11-25T01:22:05.251Z,5.00
2018-11-25T01:24:33.473Z,5.10
2018-11-25T01:27:01.693Z,5.10
2018-11-25T01:29:29.888Z,5.10
2018-11-25T01:31:58.141Z,5.10
2018-11-25T01:34:26.381Z,5.10
2018-11-25T01:36:54.621Z,5.10
2018-11-25T01:39:22.824Z,5.10
2018-11-25T01:41:51.116Z,5.10
2018-11-25T01:44:19.377Z,5.10
2018-11-25T01:46:47.596Z,5.10
2018-11-25T01:49:15.806Z,5.00
2018-11-25T01:51:44.045Z,5.00
2018-11-25T01:54:12.255Z,4.90
2018-11-25T01:56:40.466Z,4.90
2018-11-25T01:59:08.698Z,4.90
2018-11-25T02:01:36.981Z,5.00
2018-11-25T02:04:05.292Z,5.00
2018-11-25T02:06:33.529Z,5.00
2018-11-25T02:09:01.728Z,5.10
2018-11-25T02:11:29.944Z,5.00
2018-11-25T02:13:58.185Z,5.00
2018-11-25T02:16:26.467Z,5.00
2018-11-25T02:18:54.713Z,5.00
2018-11-25T02:21:22.950Z,5.00
2018-11-25T02:23:51.184Z,5.00
2018-11-25T02:26:19.408Z,5.00
2018-11-25T02:28:47.613Z,5.00
2018-11-25T02:31:15.843Z,4.90
2018-11-25T02:33:44.071Z,5.00
2018-11-25T02:36:12.336Z,5.00
2018-11-25T02:38:40.558Z,4.90
2018-11-25T02:41:08.748Z,4.90
2018-11-25T02:43:36.992Z,4.90
2018-11-25T02:46:05.332Z,4.90
2018-11-25T02:48:33.788Z,4.90
2018-11-25T02:51:01.999Z,4.90
2018-11-25T02:53:30.289Z,4.90
2018-11-25T02:55:58.568Z,4.90
2018-11-25T02:58:26.781Z,4.90
2018-11-25T03:00:55.093Z,4.80
2018-11-25T03:03:23.445Z,4.80
2018-11-25T03:05:51.711Z,4.70
2018-11-25T03:08:19.976Z,4.70
2018-11-25T03:10:48.154Z,4.60
2018-11-25T03:13:16.433Z,4.60
2018-11-25T03:15:44.636Z,4.50
2018-11-25T03:18:12.894Z,4.50
2018-11-25T03:20:41.166Z,4.50
2018-11-25T03:23:09.355Z,4.50
2018-11-25T03:25:37.640Z,4.40
2018-11-25T03:28:06.278Z,4.50
2018-11-25T03:30:34.497Z,4.50
2018-11-25T03:33:02.705Z,4.50
2018-11-25T03:35:30.994Z,4.50
2018-11-25T03:37:59.210Z,4.50
2018-11-25T03:40:27.408Z,4.50
2018-11-25T03:42:55.573Z,4.50
2018-11-25T03:45:24.138Z,4.50
2018-11-25T03:47:52.830Z,4.50
2018-11-25T03:50:21.119Z,4.50
2018-11-25T03:52:49.344Z,4.60
2018-11-25T03:55:17.886Z,4.50
2018-11-25T03:57:46.154Z,4.60
2018-11-25T04:00:17.420Z,4.50
2018-11-25T04:02:45.664Z,4.50
2018-11-25T04:05:15.675Z,4.50
2018-11-25T04:07:43.875Z,4.50
2018-11-25T04:10:13.877Z,4.60
2018-11-25T04:12:42.087Z,4.50
2018-11-25T04:15:12.202Z,4.50
2018-11-25T04:17:40.571Z,4.50
2018-11-25T04:20:12.125Z,4.50
2018-11-25T04:22:40.367Z,4.50
2018-11-25T04:25:09.542Z,4.50
2018-11-25T04:27:37.792Z,4.50
2018-11-25T04:30:09.632Z,4.50
2018-11-25T04:32:37.840Z,4.50
2018-11-25T04:35:07.163Z,4.50
2018-11-25T04:37:35.473Z,4.40
2018-11-25T04:40:03.697Z,4.40
2018-11-25T04:42:31.928Z,4.30
2018-11-25T04:45:00.117Z,4.30
2018-11-25T04:47:28.346Z,4.20
2018-11-25T04:49:56.577Z,4.30
2018-11-25T04:52:24.791Z,4.20
2018-11-25T04:54:52.991Z,4.20
2018-11-25T04:57:21.181Z,4.20
2018-11-25T04:59:49.355Z,4.20
2018-11-25T05:02:17.548Z,4.20
2018-11-25T05:04:45.742Z,4.20
2018-11-25T05:07:13.933Z,4.10
2018-11-25T05:09:42.316Z,4.10
2018-11-25T05:12:10.629Z,4.10
2018-11-25T05:14:38.851Z,4.10
2018-11-25T05:17:07.100Z,4.10
2018-11-25T05:19:35.319Z,4.00
2018-11-25T05:22:03.505Z,4.00
2018-11-25T05:24:31.749Z,4.00
2018-11-25T05:27:00.056Z,4.00
2018-11-25T05:29:28.309Z,3.90
2018-11-25T05:31:56.794Z,3.90
2018-11-25T05:34:25.143Z,3.90
2018-11-25T05:36:53.365Z,3.90
2018-11-25T05:39:21.637Z,3.80
2018-11-25T05:41:49.892Z,3.80
2018-11-25T05:44:18.195Z,3.80
2018-11-25T05:46:46.439Z,3.80
2018-11-25T05:49:14.652Z,3.80
2018-11-25T05:51:42.881Z,3.70
2018-11-25T05:54:11.111Z,3.70
2018-11-25T05:56:39.343Z,3.80
2018-11-25T05:59:07.564Z,3.80
2018-11-25T06:01:35.819Z,3.80
2018-11-25T06:04:04.053Z,3.80
2018-11-25T06:06:32.306Z,3.80
2018-11-25T06:09:00.534Z,3.80
2018-11-25T06:11:28.760Z,3.80
2018-11-25T06:13:57.030Z,3.70
2018-11-25T06:16:25.278Z,3.70
2018-11-25T06:18:53.502Z,3.70
2018-11-25T06:21:21.796Z,3.70
2018-11-25T06:23:50.016Z,3.70
2018-11-25T06:26:18.279Z,3.70
2018-11-25T06:28:46.571Z,3.70
2018-11-25T06:31:14.780Z,3.70
2018-11-25T06:33:43.060Z,3.70
2018-11-25T06:36:11.331Z,3.70
2018-11-25T06:38:39.582Z,3.60
2018-11-25T06:41:07.804Z,3.60
2018-11-25T06:43:36.042Z,3.60
2018-11-25T06:46:06.697Z,3.60
2018-11-25T06:48:34.996Z,3.60
2018-11-25T06:51:03.245Z,3.50
2018-11-25T06:53:31.633Z,3.50
2018-11-25T06:56:00.385Z,3.50
2018-11-25T06:58:28.594Z,3.50
2018-11-25T07:00:56.791Z,3.50
2018-11-25T07:03:24.976Z,3.40
2018-11-25T07:05:53.321Z,3.40
2018-11-25T07:08:21.518Z,3.40
2018-11-25T07:10:49.966Z,3.40
2018-11-25T07:13:18.234Z,3.40
2018-11-25T07:15:46.848Z,3.40
2018-11-25T07:18:15.564Z,3.40
2018-11-25T07:20:43.800Z,3.50
2018-11-25T07:23:12.067Z,3.50
2018-11-25T07:25:40.351Z,3.50
2018-11-25T07:28:18.286Z,3.60
2018-11-25T07:30:36.984Z,3.60
2018-11-25T07:33:05.242Z,3.60
2018-11-25T07:35:33.511Z,3.60
2018-11-25T07:38:02.763Z,3.60
2018-11-25T07:40:31.032Z,3.70
2018-11-25T07:42:59.262Z,3.70
2018-11-25T07:45:30.745Z,3.70
2018-11-25T07:47:55.719Z,3.80
2018-11-25T07:50:27.480Z,3.80
2018-11-25T07:52:55.717Z,3.80
2018-11-25T07:55:24.900Z,3.90
2018-11-25T07:57:53.957Z,4.00
2018-11-25T08:00:23.170Z,3.90
2018-11-25T08:02:51.450Z,3.90
2018-11-25T08:05:21.845Z,4.00
2018-11-25T08:07:50.089Z,4.00
2018-11-25T08:10:18.316Z,4.10
2018-11-25T08:12:46.902Z,4.10
2018-11-25T08:15:16.729Z,4.20
2018-11-25T08:17:44.975Z,4.30
2018-11-25T08:20:14.300Z,4.40
2018-11-25T08:22:42.924Z,4.40
2018-11-25T08:25:12.174Z,4.40
2018-11-25T08:27:40.444Z,4.50
2018-11-25T08:30:16.525Z,4.60
2018-11-25T08:32:44.773Z,4.60
2018-11-25T08:35:13.791Z,4.60
2018-11-25T08:37:42.061Z,4.70
2018-11-25T08:40:12.260Z,4.70
2018-11-25T08:42:40.465Z,4.80
2018-11-25T08:45:10.056Z,4.80
2018-11-25T08:47:38.352Z,5.00
2018-11-25T08:50:12.145Z,5.00
2018-11-25T08:52:40.560Z,5.10
2018-11-25T08:55:10.353Z,5.10
2018-11-25T08:57:38.581Z,5.10
2018-11-25T09:00:12.458Z,5.10
2018-11-25T09:02:40.676Z,5.20
2018-11-25T09:05:10.346Z,5.20
2018-11-25T09:07:38.613Z,5.30
2018-11-25T09:10:09.936Z,5.20
2018-11-25T09:12:38.176Z,5.30
2018-11-25T09:15:10.187Z,5.30
2018-11-25T09:17:38.461Z,5.30
2018-11-25T09:20:08.951Z,5.40
2018-11-25T09:22:37.183Z,5.50
2018-11-25T09:25:07.204Z,5.50
2018-11-25T09:27:35.447Z,5.60
2018-11-25T09:30:03.689Z,5.60
2018-11-25T09:32:31.892Z,5.70
2018-11-25T09:35:00.080Z,5.70
2018-11-25T09:37:28.261Z,5.70
2018-11-25T09:39:56.437Z,5.80
2018-11-25T09:42:24.679Z,5.80
2018-11-25T09:44:52.883Z,5.90
2018-11-25T09:47:21.102Z,5.90
2018-11-25T09:49:49.328Z,5.90
2018-11-25T09:52:18.167Z,6.00
2018-11-25T09:54:46.353Z,6.00
2018-11-25T09:57:14.584Z,6.00
2018-11-25T09:59:42.774Z,6.10
2018-11-25T10:02:10.962Z,6.10
2018-11-25T10:04:39.140Z,6.10
2018-11-25T10:07:07.380Z,6.10
2018-11-25T10:09:35.601Z,6.10
2018-11-25T10:12:03.794Z,6.00
2018-11-25T10:14:31.966Z,6.00
2018-11-25T10:17:00.143Z,6.00
2018-11-25T10:19:28.374Z,6.00
2018-11-25T10:21:56.781Z,6.00
2018-11-25T10:24:24.976Z,6.00
2018-11-25T10:26:53.154Z,6.00
2018-11-25T10:29:21.329Z,6.10
2018-11-25T10:31:49.540Z,6.10
2018-11-25T10:34:17.726Z,6.20
2018-11-25T10:36:45.925Z,6.20
2018-11-25T10:39:14.517Z,6.30
2018-11-25T10:41:42.355Z,6.30
2018-11-25T10:44:10.557Z,6.40
2018-11-25T10:46:38.725Z,6.40
2018-11-25T10:49:06.922Z,6.50
2018-11-25T10:51:35.100Z,6.60
2018-11-25T10:54:03.286Z,6.70
2018-11-25T10:56:31.518Z,6.80
2018-11-25T10:58:59.715Z,6.90
2018-11-25T11:01:33.405Z,7.00
2018-11-25T11:04:01.596Z,7.00
2018-11-25T11:06:35.225Z,7.10
2018-11-25T11:09:03.605Z,7.00
2018-11-25T11:11:31.772Z,7.20
2018-11-25T11:14:00.206Z,7.30
2018-11-25T11:16:28.551Z,7.30
2018-11-25T11:18:56.795Z,7.30
2018-11-25T11:21:24.979Z,7.40
2018-11-25T11:23:53.180Z,7.50
2018-11-25T11:26:26.148Z,7.50
2018-11-25T11:28:54.400Z,7.50
2018-11-25T11:31:22.601Z,7.50
2018-11-25T11:33:50.810Z,7.60
2018-11-25T11:36:19.018Z,7.50
2018-11-25T11:38:47.238Z,7.50
2018-11-25T11:41:15.446Z,7.60
2018-11-25T11:43:43.674Z,7.50
2018-11-25T11:46:11.921Z,7.60
2018-11-25T11:48:40.126Z,7.60
2018-11-25T11:51:08.365Z,7.50
2018-11-25T11:53:36.561Z,7.50
2018-11-25T11:56:04.836Z,7.60
2018-11-25T11:58:33.060Z,7.60
2018-11-25T12:01:01.286Z,7.70
2018-11-25T12:03:29.487Z,7.70
2018-11-25T12:05:57.694Z,7.60
2018-11-25T12:08:25.878Z,7.60
2018-11-25T12:10:54.118Z,7.70
2018-11-25T12:13:22.367Z,7.80
2018-11-25T12:15:50.557Z,7.80
2018-11-25T12:18:18.786Z,7.90
2018-11-25T12:20:46.969Z,7.90
2018-11-25T12:23:15.161Z,8.00
2018-11-25T12:25:43.358Z,8.00
2018-11-25T12:28:11.547Z,8.00
2018-11-25T12:30:39.821Z,8.00
2018-11-25T12:33:08.021Z,7.80
2018-11-25T12:35:36.223Z,7.80
2018-11-25T12:38:04.408Z,7.80
2018-11-25T12:40:32.647Z,7.80
2018-11-25T12:43:00.821Z,7.70
2018-11-25T12:45:29.076Z,7.80
2018-11-25T12:47:57.297Z,7.90
2018-11-25T12:50:26.295Z,7.90
2018-11-25T12:52:54.798Z,7.90
2018-11-25T12:55:24.195Z,7.90
2018-11-25T12:57:52.560Z,7.90
2018-11-25T13:00:38.227Z,7.80
2018-11-25T13:03:08.672Z,7.80
2018-11-25T13:05:36.858Z,7.80
2018-11-25T13:08:05.343Z,7.70
2018-11-25T13:10:33.534Z,7.70
2018-11-25T13:13:01.786Z,7.70
2018-11-25T13:15:30.015Z,7.70
2018-11-25T13:17:58.235Z,7.70
2018-11-25T13:20:26.452Z,7.70
2018-11-25T13:22:54.660Z,7.70
2018-11-25T13:25:22.879Z,7.80
2018-11-25T13:27:51.111Z,7.70
2018-11-25T13:30:22.675Z,7.70
2018-11-25T13:32:51.957Z,7.70
2018-11-25T13:35:20.136Z,7.70
2018-11-25T13:37:48.325Z,7.70
2018-11-25T13:40:16.933Z,7.70
2018-11-25T13:42:45.162Z,7.60
2018-11-25T13:45:13.384Z,7.60
2018-11-25T13:47:41.562Z,7.60
2018-11-25T13:50:10.750Z,7.60
2018-11-25T13:52:40.301Z,7.50
2018-11-25T13:55:15.919Z,7.40
2018-11-25T13:57:44.125Z,7.40
2018-11-25T14:00:44.959Z,7.40
2018-11-25T14:03:17.432Z,7.30
2018-11-25T14:05:52.634Z,7.40
2018-11-25T14:08:13.877Z,7.30
2018-11-25T14:10:42.176Z,7.30
2018-11-25T14:13:10.391Z,7.20
2018-11-25T14:15:38.580Z,7.20
2018-11-25T14:18:07.150Z,7.10
2018-11-25T14:20:35.308Z,7.10
2018-11-25T14:23:03.515Z,7.10
2018-11-25T14:25:31.776Z,7.10
2018-11-25T14:28:06.845Z,7.10
2018-11-25T14:30:35.142Z,7.20
2018-11-25T14:33:03.472Z,7.20
2018-11-25T14:35:31.685Z,7.10
2018-11-25T14:37:59.901Z,7.20
2018-11-25T14:40:28.319Z,7.10
2018-11-25T14:42:56.581Z,7.10
2018-11-25T14:45:24.800Z,7.10
2018-11-25T14:47:53.787Z,7.10
2018-11-25T14:50:22.015Z,7.10
2018-11-25T14:52:51.581Z,7.10
2018-11-25T14:55:20.194Z,7.10
2018-11-25T14:57:48.427Z,7.00
2018-11-25T15:00:18.556Z,7.00
2018-11-25T15:02:48.288Z,7.00
2018-11-25T15:05:18.969Z,7.00
2018-11-25T15:07:47.168Z,6.90
2018-11-25T15:10:15.400Z,6.90
2018-11-25T15:12:43.659Z,6.90
2018-11-25T15:15:13.181Z,6.90
2018-11-25T15:17:42.193Z,6.90
2018-11-25T15:20:11.485Z,6.90
2018-11-25T15:22:40.078Z,6.80
2018-11-25T15:25:11.420Z,6.80
2018-11-25T15:27:39.608Z,6.80
2018-11-25T15:30:09.729Z,6.70
2018-11-25T15:32:39.315Z,6.70
2018-11-25T15:35:09.317Z,6.70
2018-11-25T15:37:38.538Z,6.70
2018-11-25T15:40:18.115Z,6.60
2018-11-25T15:42:46.353Z,6.60
2018-11-25T15:45:14.620Z,6.60
2018-11-25T15:47:44.641Z,6.60
2018-11-25T15:50:14.555Z,6.60
2018-11-25T15:52:42.747Z,6.50
2018-11-25T15:55:12.559Z,6.50
2018-11-25T15:57:40.817Z,6.50
2018-11-25T16:00:11.980Z,6.40
2018-11-25T16:02:40.238Z,6.40
2018-11-25T16:05:10.471Z,6.40
2018-11-25T16:07:38.667Z,6.30
2018-11-25T16:10:10.186Z,6.30
2018-11-25T16:12:38.579Z,6.30
2018-11-25T16:15:09.147Z,6.30
2018-11-25T16:17:37.367Z,6.30
2018-11-25T16:20:09.343Z,6.30
2018-11-25T16:22:37.606Z,6.20
2018-11-25T16:25:10.592Z,6.30
2018-11-25T16:27:38.832Z,6.20
2018-11-25T16:30:09.789Z,6.20
2018-11-25T16:32:38.140Z,6.20
2018-11-25T16:35:08.321Z,6.20
2018-11-25T16:37:36.732Z,6.20
2018-11-25T16:40:08.465Z,6.20
2018-11-25T16:42:36.688Z,6.20
2018-11-25T16:45:06.472Z,6.20
2018-11-25T16:47:34.821Z,6.30
2018-11-25T16:50:03.096Z,6.30
2018-11-25T16:52:31.799Z,6.30
2018-11-25T16:55:00.113Z,6.30
2018-11-25T16:57:28.335Z,6.30
2018-11-25T16:59:56.694Z,6.30
2018-11-25T17:02:24.951Z,6.30
2018-11-25T17:04:53.217Z,6.30
2018-11-25T17:07:21.476Z,6.30
2018-11-25T17:09:50.198Z,6.30
2018-11-25T17:12:18.470Z,6.30
2018-11-25T17:14:46.953Z,6.30
2018-11-25T17:17:15.212Z,6.30
2018-11-25T17:19:43.443Z,6.30
2018-11-25T17:22:16.411Z,6.30
2018-11-25T17:24:39.934Z,6.30
2018-11-25T17:27:08.172Z,6.30
2018-11-25T17:29:36.417Z,6.30
2018-11-25T17:32:04.855Z,6.30
2018-11-25T17:34:33.101Z,6.30
2018-11-25T17:37:01.317Z,6.30
2018-11-25T17:39:29.532Z,6.30
2018-11-25T17:41:57.827Z,6.30
2018-11-25T17:44:26.131Z,6.30
2018-11-25T17:46:54.960Z,6.30
2018-11-25T17:49:23.179Z,6.30
2018-11-25T17:51:51.404Z,6.30
2018-11-25T17:54:19.599Z,6.30
2018-11-25T17:56:47.948Z,6.30
2018-11-25T17:59:16.137Z,6.30
2018-11-25T18:01:44.382Z,6.30
2018-11-25T18:04:12.605Z,6.30
2018-11-25T18:06:40.919Z,6.30
2018-11-25T18:09:11.146Z,6.30
2018-11-25T18:11:40.584Z,6.30
2018-11-25T18:14:12.010Z,6.30
2018-11-25T18:16:40.407Z,6.30
2018-11-25T18:19:17.041Z,6.40
2018-11-25T18:21:45.266Z,6.40
2018-11-25T18:24:13.562Z,6.40
2018-11-25T18:26:41.736Z,6.40
2018-11-25T18:29:09.981Z,6.40
2018-11-25T18:31:38.249Z,6.40
2018-11-25T18:34:06.452Z,6.40
2018-11-25T18:36:34.684Z,6.40
2018-11-25T18:39:02.921Z,6.30
2018-11-25T18:41:31.155Z,6.30
2018-11-25T18:43:59.360Z,6.30
2018-11-25T18:46:46.900Z,6.30
2018-11-25T18:49:10.360Z,6.30
2018-11-25T18:51:38.861Z,6.30
2018-11-25T18:57:00.921Z,6.20
2018-11-25T18:59:29.238Z,6.20
2018-11-25T19:02:00.110Z,6.10
2018-11-25T19:04:29.214Z,6.10
2018-11-25T19:06:57.493Z,6.10
2018-11-25T19:09:25.708Z,6.10
2018-11-25T19:11:53.957Z,6.00
2018-11-25T19:14:22.173Z,6.00
2018-11-25T19:16:50.512Z,6.00
2018-11-25T19:19:18.791Z,6.00
2018-11-25T19:21:47.084Z,6.10
2018-11-25T19:24:15.296Z,6.10
2018-11-25T19:26:43.864Z,6.00
2018-11-25T19:29:12.174Z,6.10
2018-11-25T19:31:40.415Z,6.10
2018-11-25T19:34:08.633Z,6.10
2018-11-25T19:36:36.898Z,6.10
2018-11-25T19:39:08.495Z,6.10
2018-11-25T19:41:36.726Z,6.10
2018-11-25T19:44:05.568Z,6.10
2018-11-25T19:46:33.782Z,6.10
2018-11-25T19:49:01.996Z,6.10
2018-11-25T19:51:30.337Z,6.20
2018-11-25T19:53:58.656Z,6.20
2018-11-25T19:56:28.870Z,6.20
2018-11-25T19:58:59.355Z,6.20
2018-11-25T20:01:31.770Z,6.20
2018-11-25T20:04:00.026Z,6.20
2018-11-25T20:06:28.257Z,6.20
2018-11-25T20:08:56.506Z,6.20
2018-11-25T20:11:24.778Z,6.20
2018-11-25T20:13:53.042Z,6.20
2018-11-25T20:16:26.797Z,6.20
2018-11-25T20:18:55.121Z,6.20
2018-11-25T20:21:28.761Z,6.20
2018-11-25T20:23:57.003Z,6.30
2018-11-25T20:26:25.242Z,6.20
2018-11-25T20:28:53.537Z,6.20
2018-11-25T20:31:21.850Z,6.20
2018-11-25T20:33:52.633Z,6.20
2018-11-25T20:36:20.661Z,6.20
2018-11-25T20:38:54.205Z,6.20
2018-11-25T20:41:22.395Z,6.20
2018-11-25T20:43:50.769Z,6.20
2018-11-25T20:46:24.616Z,6.20
2018-11-25T20:48:52.990Z,6.20
2018-11-25T20:51:25.719Z,6.20
2018-11-25T20:53:57.420Z,6.20
2018-11-25T20:56:29.149Z,6.20
2018-11-25T20:58:57.439Z,6.20
2018-11-25T21:01:25.733Z,6.20
2018-11-25T21:03:54.098Z,6.20
2018-11-25T21:06:32.344Z,6.10
2018-11-25T21:09:00.588Z,6.10
2018-11-25T21:11:28.804Z,6.10
2018-11-25T21:13:57.056Z,6.10
2018-11-25T21:16:25.323Z,6.10
2018-11-25T21:18:53.530Z,6.10
2018-11-25T21:21:21.755Z,6.10
2018-11-25T21:23:49.999Z,6.10
2018-11-25T21:26:18.341Z,6.10
2018-11-25T21:28:46.740Z,6.10
2018-11-25T21:31:15.035Z,6.10
2018-11-25T21:33:43.212Z,6.10
2018-11-25T21:36:11.561Z,6.10
2018-11-25T21:38:40.043Z,6.10
2018-11-25T21:41:08.293Z,6.10
2018-11-25T21:43:36.656Z,6.10
2018-11-25T21:46:05.278Z,6.10
2018-11-25T21:48:33.871Z,6.10
2018-11-25T21:51:02.459Z,6.10
2018-11-25T21:53:30.828Z,6.10
2018-11-25T21:55:59.053Z,6.00
2018-11-25T21:58:28.828Z,6.00
2018-11-25T22:00:55.580Z,6.00
2018-11-25T22:03:24.100Z,5.90
2018-11-25T22:05:52.422Z,5.90
2018-11-25T22:08:20.782Z,5.90
2018-11-25T22:10:49.169Z,5.90
2018-11-25T22:13:17.511Z,5.90
2018-11-25T22:15:45.850Z,5.90
2018-11-25T22:18:14.168Z,5.80
2018-11-25T22:20:42.443Z,5.90
2018-11-25T22:23:11.175Z,5.80
2018-11-25T22:25:40.093Z,5.80
2018-11-25T22:28:08.832Z,5.80
2018-11-25T22:30:37.084Z,5.80
2018-11-25T22:33:06.110Z,5.80
2018-11-25T22:35:34.554Z,5.90
2018-11-25T22:38:02.918Z,5.80
2018-11-25T22:40:31.240Z,5.80
2018-11-25T22:42:59.494Z,5.80
2018-11-25T22:45:28.461Z,5.90
2018-11-25T22:47:57.352Z,5.80
2018-11-25T22:50:27.703Z,5.80
2018-11-25T22:52:54.337Z,5.90
2018-11-25T22:55:23.933Z,5.90
2018-11-25T22:57:52.189Z,5.80
2018-11-25T23:00:23.013Z,5.80
2018-11-25T23:02:51.237Z,5.80
2018-11-25T23:05:31.033Z,5.80
2018-11-25T23:07:59.818Z,5.80
2018-11-25T23:10:28.182Z,5.70
2018-11-25T23:12:56.633Z,5.80
2018-11-25T23:15:24.965Z,5.70
2018-11-25T23:17:53.238Z,5.70
2018-11-25T23:20:21.688Z,5.70
2018-11-25T23:22:50.098Z,5.70
2018-11-25T23:25:18.890Z,5.70
2018-11-25T23:27:47.477Z,5.70
2018-11-25T23:30:15.736Z,5.70
2018-11-25T23:32:44.017Z,5.70
2018-11-25T23:35:16.100Z,5.70
2018-11-25T23:37:44.601Z,5.60
2018-11-25T23:40:12.843Z,5.60
2018-11-25T23:42:41.321Z,5.50
2018-11-25T23:45:11.882Z,5.40
2018-11-25T23:47:40.176Z,5.40
2018-11-25T23:50:10.455Z,5.40
2018-11-25T23:52:38.910Z,5.30
2018-11-25T23:55:08.541Z,5.30
2018-11-25T23:57:36.836Z,5.30
